sensor_id;sensor_type;location;lat;lon;timestamp;P1;durP1;ratioP1;P2;durP2;ratioP2
54599;SDS011;40500;51.084;16.958;2022-09-09T00:00:43;4.70;;;4.20;;
54599;SDS011;40500;51.084;16.958;2022-09-09T00:03:24;4.00;;;3.60;;
54599;SDS011;40500;51.084;16.958;2022-09-09T00:06:03;5.80;;;4.40;;
54599;SDS011;40500;51.084;16.958;2022-09-09T00:08:42;4.20;;;3.70;;
54599;SDS011;40500;51.084;16.958;2022-09-09T00:11:24;5.40;;;3.50;;
54599;SDS011;40500;51.084;16.958;2022-09-09T00:14:00;5.30;;;3.60;;
54599;SDS011;40500;51.084;16.958;2022-09-09T00:16:41;10.00;;;4.00;;
54599;SDS011;40500;51.084;16.958;2022-09-09T00:19:20;3.80;;;3.30;;
54599;SDS011;40500;51.084;16.958;2022-09-09T00:21:57;5.10;;;3.60;;
54599;SDS011;40500;51.084;16.958;2022-09-09T00:24:37;5.90;;;3.40;;
54599;SDS011;40500;51.084;16.958;2022-09-09T00:27:15;3.20;;;2.90;;
54599;SDS011;40500;51.084;16.958;2022-09-09T00:29:53;5.40;;;3.50;;
54599;SDS011;40500;51.084;16.958;2022-09-09T00:32:29;4.40;;;3.00;;
54599;SDS011;40500;51.084;16.958;2022-09-09T00:35:02;3.60;;;3.20;;
54599;SDS011;40500;51.084;16.958;2022-09-09T00:37:43;4.20;;;3.50;;
54599;SDS011;40500;51.084;16.958;2022-09-09T00:40:22;3.60;;;3.30;;
54599;SDS011;40500;51.084;16.958;2022-09-09T00:43:05;3.70;;;3.40;;
54599;SDS011;40500;51.084;16.958;2022-09-09T00:45:54;4.50;;;3.00;;
54599;SDS011;40500;51.084;16.958;2022-09-09T00:48:47;4.30;;;3.30;;
54599;SDS011;40500;51.084;16.958;2022-09-09T00:51:31;5.10;;;3.20;;
54599;SDS011;40500;51.084;16.958;2022-09-09T00:54:22;4.60;;;3.00;;
54599;SDS011;40500;51.084;16.958;2022-09-09T00:57:05;3.60;;;3.00;;
54599;SDS011;40500;51.084;16.958;2022-09-09T00:59:45;3.40;;;3.10;;
54599;SDS011;40500;51.084;16.958;2022-09-09T01:02:21;2.90;;;2.70;;
54599;SDS011;40500;51.084;16.958;2022-09-09T01:04:59;5.00;;;2.90;;
54599;SDS011;40500;51.084;16.958;2022-09-09T01:07:36;2.70;;;2.50;;
54599;SDS011;40500;51.084;16.958;2022-09-09T01:10:09;2.90;;;2.70;;
54599;SDS011;40500;51.084;16.958;2022-09-09T01:12:49;3.30;;;2.60;;
54599;SDS011;40500;51.084;16.958;2022-09-09T01:15:26;5.20;;;3.10;;
54599;SDS011;40500;51.084;16.958;2022-09-09T01:18:01;3.00;;;2.70;;
54599;SDS011;40500;51.084;16.958;2022-09-09T01:20:53;3.10;;;2.70;;
54599;SDS011;40500;51.084;16.958;2022-09-09T01:23:35;3.30;;;3.00;;
54599;SDS011;40500;51.084;16.958;2022-09-09T01:26:18;4.70;;;2.70;;
54599;SDS011;40500;51.084;16.958;2022-09-09T01:28:54;3.40;;;3.10;;
54599;SDS011;40500;51.084;16.958;2022-09-09T01:31:26;3.40;;;3.10;;
54599;SDS011;40500;51.084;16.958;2022-09-09T01:33:59;3.40;;;3.00;;
54599;SDS011;40500;51.084;16.958;2022-09-09T01:36:33;3.30;;;2.70;;
54599;SDS011;40500;51.084;16.958;2022-09-09T01:39:10;3.50;;;3.10;;
54599;SDS011;40500;51.084;16.958;2022-09-09T01:41:44;3.50;;;3.20;;
54599;SDS011;40500;51.084;16.958;2022-09-09T01:44:17;3.30;;;3.00;;
54599;SDS011;40500;51.084;16.958;2022-09-09T01:46:49;3.70;;;3.40;;
54599;SDS011;40500;51.084;16.958;2022-09-09T01:49:21;4.50;;;3.40;;
54599;SDS011;40500;51.084;16.958;2022-09-09T01:51:55;3.00;;;2.80;;
54599;SDS011;40500;51.084;16.958;2022-09-09T01:54:26;4.40;;;3.00;;
54599;SDS011;40500;51.084;16.958;2022-09-09T01:57:01;3.20;;;3.00;;
54599;SDS011;40500;51.084;16.958;2022-09-09T01:59:53;10.50;;;3.40;;
54599;SDS011;40500;51.084;16.958;2022-09-09T02:02:38;3.20;;;2.90;;
54599;SDS011;40500;51.084;16.958;2022-09-09T02:05:21;3.40;;;3.20;;
54599;SDS011;40500;51.084;16.958;2022-09-09T02:08:03;3.50;;;3.20;;
54599;SDS011;40500;51.084;16.958;2022-09-09T02:10:39;4.30;;;3.00;;
54599;SDS011;40500;51.084;16.958;2022-09-09T02:13:18;3.00;;;2.80;;
54599;SDS011;40500;51.084;16.958;2022-09-09T02:15:52;3.80;;;3.30;;
54599;SDS011;40500;51.084;16.958;2022-09-09T02:18:27;3.90;;;3.50;;
54599;SDS011;40500;51.084;16.958;2022-09-09T02:21:04;3.90;;;3.60;;
54599;SDS011;40500;51.084;16.958;2022-09-09T02:23:38;3.20;;;3.00;;
54599;SDS011;40500;51.084;16.958;2022-09-09T02:26:19;4.10;;;3.50;;
54599;SDS011;40500;51.084;16.958;2022-09-09T02:28:54;4.00;;;3.20;;
54599;SDS011;40500;51.084;16.958;2022-09-09T02:31:28;3.20;;;3.00;;
54599;SDS011;40500;51.084;16.958;2022-09-09T02:34:03;2.90;;;2.70;;
54599;SDS011;40500;51.084;16.958;2022-09-09T02:36:42;3.30;;;2.90;;
54599;SDS011;40500;51.084;16.958;2022-09-09T02:39:16;3.10;;;2.80;;
54599;SDS011;40500;51.084;16.958;2022-09-09T02:41:50;3.30;;;3.00;;
54599;SDS011;40500;51.084;16.958;2022-09-09T02:44:21;6.80;;;3.20;;
54599;SDS011;40500;51.084;16.958;2022-09-09T02:47:04;2.90;;;2.50;;
54599;SDS011;40500;51.084;16.958;2022-09-09T02:49:50;2.60;;;2.50;;
54599;SDS011;40500;51.084;16.958;2022-09-09T02:55:09;2.80;;;2.20;;
54599;SDS011;40500;51.084;16.958;2022-09-09T02:57:49;1.80;;;1.70;;
54599;SDS011;40500;51.084;16.958;2022-09-09T03:00:26;2.20;;;2.10;;
54599;SDS011;40500;51.084;16.958;2022-09-09T03:02:58;2.30;;;2.20;;
54599;SDS011;40500;51.084;16.958;2022-09-09T03:05:31;1.80;;;1.70;;
54599;SDS011;40500;51.084;16.958;2022-09-09T03:08:04;1.90;;;1.80;;
54599;SDS011;40500;51.084;16.958;2022-09-09T03:10:35;1.70;;;1.60;;
54599;SDS011;40500;51.084;16.958;2022-09-09T03:13:06;2.20;;;2.00;;
54599;SDS011;40500;51.084;16.958;2022-09-09T03:15:41;2.30;;;2.20;;
54599;SDS011;40500;51.084;16.958;2022-09-09T03:18:20;2.50;;;2.00;;
54599;SDS011;40500;51.084;16.958;2022-09-09T03:20:51;1.90;;;1.80;;
54599;SDS011;40500;51.084;16.958;2022-09-09T03:23:25;1.90;;;1.80;;
54599;SDS011;40500;51.084;16.958;2022-09-09T03:26:04;1.80;;;1.70;;
54599;SDS011;40500;51.084;16.958;2022-09-09T03:28:45;1.60;;;1.50;;
54599;SDS011;40500;51.084;16.958;2022-09-09T03:31:19;2.00;;;1.90;;
54599;SDS011;40500;51.084;16.958;2022-09-09T03:33:51;2.00;;;1.90;;
54599;SDS011;40500;51.084;16.958;2022-09-09T03:36:26;2.70;;;2.50;;
54599;SDS011;40500;51.084;16.958;2022-09-09T03:38:58;3.70;;;3.10;;
54599;SDS011;40500;51.084;16.958;2022-09-09T03:41:30;5.10;;;3.80;;
54599;SDS011;40500;51.084;16.958;2022-09-09T03:44:02;4.00;;;3.70;;
54599;SDS011;40500;51.084;16.958;2022-09-09T03:46:35;7.20;;;4.00;;
54599;SDS011;40500;51.084;16.958;2022-09-09T03:49:06;5.20;;;4.20;;
54599;SDS011;40500;51.084;16.958;2022-09-09T03:51:37;4.60;;;4.20;;
54599;SDS011;40500;51.084;16.958;2022-09-09T03:54:12;4.50;;;3.70;;
54599;SDS011;40500;51.084;16.958;2022-09-09T03:56:42;3.70;;;3.40;;
54599;SDS011;40500;51.084;16.958;2022-09-09T03:59:21;3.00;;;2.80;;
54599;SDS011;40500;51.084;16.958;2022-09-09T04:02:00;2.70;;;2.50;;
54599;SDS011;40500;51.084;16.958;2022-09-09T04:04:37;2.50;;;2.30;;
54599;SDS011;40500;51.084;16.958;2022-09-09T04:07:09;2.70;;;2.50;;
54599;SDS011;40500;51.084;16.958;2022-09-09T04:09:39;2.60;;;2.40;;
54599;SDS011;40500;51.084;16.958;2022-09-09T04:12:25;4.30;;;3.40;;
54599;SDS011;40500;51.084;16.958;2022-09-09T04:14:59;5.10;;;3.40;;
54599;SDS011;40500;51.084;16.958;2022-09-09T04:17:32;3.90;;;3.60;;
54599;SDS011;40500;51.084;16.958;2022-09-09T04:20:05;4.80;;;3.80;;
54599;SDS011;40500;51.084;16.958;2022-09-09T04:22:39;5.40;;;4.20;;
54599;SDS011;40500;51.084;16.958;2022-09-09T04:25:10;6.30;;;3.90;;
54599;SDS011;40500;51.084;16.958;2022-09-09T04:27:42;4.30;;;3.90;;
54599;SDS011;40500;51.084;16.958;2022-09-09T04:30:14;4.40;;;3.70;;
54599;SDS011;40500;51.084;16.958;2022-09-09T04:32:45;3.80;;;3.50;;
54599;SDS011;40500;51.084;16.958;2022-09-09T04:35:18;3.90;;;3.50;;
54599;SDS011;40500;51.084;16.958;2022-09-09T04:37:52;4.50;;;4.10;;
54599;SDS011;40500;51.084;16.958;2022-09-09T04:40:23;4.70;;;4.30;;
54599;SDS011;40500;51.084;16.958;2022-09-09T04:42:57;4.50;;;4.10;;
54599;SDS011;40500;51.084;16.958;2022-09-09T04:45:27;4.90;;;4.50;;
54599;SDS011;40500;51.084;16.958;2022-09-09T04:47:58;5.40;;;4.80;;
54599;SDS011;40500;51.084;16.958;2022-09-09T04:50:29;5.10;;;4.60;;
54599;SDS011;40500;51.084;16.958;2022-09-09T04:53:02;5.10;;;4.30;;
54599;SDS011;40500;51.084;16.958;2022-09-09T04:55:35;3.90;;;3.50;;
54599;SDS011;40500;51.084;16.958;2022-09-09T04:58:09;3.70;;;3.40;;
54599;SDS011;40500;51.084;16.958;2022-09-09T05:00:40;3.40;;;3.10;;
54599;SDS011;40500;51.084;16.958;2022-09-09T05:03:15;4.60;;;4.20;;
54599;SDS011;40500;51.084;16.958;2022-09-09T05:05:46;6.10;;;4.40;;
54599;SDS011;40500;51.084;16.958;2022-09-09T05:08:21;7.00;;;4.00;;
54599;SDS011;40500;51.084;16.958;2022-09-09T05:10:53;6.30;;;4.40;;
54599;SDS011;40500;51.084;16.958;2022-09-09T05:13:24;5.50;;;4.40;;
54599;SDS011;40500;51.084;16.958;2022-09-09T05:15:59;5.00;;;4.50;;
54599;SDS011;40500;51.084;16.958;2022-09-09T05:18:30;4.90;;;4.50;;
54599;SDS011;40500;51.084;16.958;2022-09-09T05:21:03;5.40;;;4.90;;
54599;SDS011;40500;51.084;16.958;2022-09-09T05:23:35;8.00;;;5.50;;
54599;SDS011;40500;51.084;16.958;2022-09-09T05:26:11;5.40;;;4.80;;
54599;SDS011;40500;51.084;16.958;2022-09-09T05:28:44;7.10;;;5.00;;
54599;SDS011;40500;51.084;16.958;2022-09-09T05:31:16;6.70;;;5.40;;
54599;SDS011;40500;51.084;16.958;2022-09-09T05:33:48;5.30;;;4.70;;
54599;SDS011;40500;51.084;16.958;2022-09-09T05:36:20;5.80;;;5.20;;
54599;SDS011;40500;51.084;16.958;2022-09-09T05:38:51;7.10;;;4.80;;
54599;SDS011;40500;51.084;16.958;2022-09-09T05:41:22;10.60;;;5.90;;
54599;SDS011;40500;51.084;16.958;2022-09-09T05:43:53;9.10;;;5.20;;
54599;SDS011;40500;51.084;16.958;2022-09-09T05:46:26;5.00;;;4.60;;
54599;SDS011;40500;51.084;16.958;2022-09-09T05:48:57;5.70;;;5.10;;
54599;SDS011;40500;51.084;16.958;2022-09-09T05:51:29;5.90;;;5.30;;
54599;SDS011;40500;51.084;16.958;2022-09-09T05:54:04;6.40;;;5.40;;
54599;SDS011;40500;51.084;16.958;2022-09-09T05:56:38;5.40;;;4.90;;
54599;SDS011;40500;51.084;16.958;2022-09-09T05:59:18;6.50;;;4.70;;
54599;SDS011;40500;51.084;16.958;2022-09-09T06:01:52;4.80;;;4.30;;
54599;SDS011;40500;51.084;16.958;2022-09-09T06:04:25;5.50;;;5.00;;
54599;SDS011;40500;51.084;16.958;2022-09-09T06:06:55;4.80;;;4.30;;
54599;SDS011;40500;51.084;16.958;2022-09-09T06:09:26;8.00;;;4.90;;
54599;SDS011;40500;51.084;16.958;2022-09-09T06:11:58;6.80;;;4.50;;
54599;SDS011;40500;51.084;16.958;2022-09-09T06:14:28;5.50;;;4.70;;
54599;SDS011;40500;51.084;16.958;2022-09-09T06:16:58;5.60;;;4.40;;
54599;SDS011;40500;51.084;16.958;2022-09-09T06:19:30;5.60;;;4.20;;
54599;SDS011;40500;51.084;16.958;2022-09-09T06:22:00;5.30;;;4.00;;
54599;SDS011;40500;51.084;16.958;2022-09-09T06:24:31;4.20;;;3.30;;
54599;SDS011;40500;51.084;16.958;2022-09-09T06:27:01;4.90;;;4.20;;
54599;SDS011;40500;51.084;16.958;2022-09-09T06:29:33;4.80;;;3.00;;
54599;SDS011;40500;51.084;16.958;2022-09-09T06:32:03;4.30;;;2.80;;
54599;SDS011;40500;51.084;16.958;2022-09-09T06:34:36;4.60;;;2.80;;
54599;SDS011;40500;51.084;16.958;2022-09-09T06:37:06;7.50;;;3.90;;
54599;SDS011;40500;51.084;16.958;2022-09-09T06:39:38;4.00;;;3.30;;
54599;SDS011;40500;51.084;16.958;2022-09-09T06:42:09;6.10;;;3.70;;
54599;SDS011;40500;51.084;16.958;2022-09-09T06:44:39;7.70;;;4.30;;
54599;SDS011;40500;51.084;16.958;2022-09-09T06:47:10;6.90;;;4.00;;
54599;SDS011;40500;51.084;16.958;2022-09-09T06:49:41;4.90;;;4.00;;
54599;SDS011;40500;51.084;16.958;2022-09-09T06:52:15;8.60;;;4.20;;
54599;SDS011;40500;51.084;16.958;2022-09-09T06:54:46;5.30;;;3.10;;
54599;SDS011;40500;51.084;16.958;2022-09-09T06:57:16;5.50;;;3.00;;
54599;SDS011;40500;51.084;16.958;2022-09-09T07:00:05;5.80;;;3.50;;
54599;SDS011;40500;51.084;16.958;2022-09-09T07:02:37;7.30;;;2.70;;
54599;SDS011;40500;51.084;16.958;2022-09-09T07:05:08;5.20;;;2.30;;
54599;SDS011;40500;51.084;16.958;2022-09-09T07:07:39;2.30;;;2.10;;
54599;SDS011;40500;51.084;16.958;2022-09-09T07:10:09;3.10;;;2.00;;
54599;SDS011;40500;51.084;16.958;2022-09-09T07:12:40;2.90;;;1.70;;
54599;SDS011;40500;51.084;16.958;2022-09-09T07:15:12;2.50;;;1.70;;
54599;SDS011;40500;51.084;16.958;2022-09-09T07:17:42;2.40;;;1.50;;
54599;SDS011;40500;51.084;16.958;2022-09-09T07:20:14;3.00;;;1.80;;
54599;SDS011;40500;51.084;16.958;2022-09-09T07:22:44;4.40;;;1.90;;
54599;SDS011;40500;51.084;16.958;2022-09-09T07:25:15;1.60;;;1.50;;
54599;SDS011;40500;51.084;16.958;2022-09-09T07:27:45;2.00;;;1.70;;
54599;SDS011;40500;51.084;16.958;2022-09-09T07:30:16;3.10;;;1.30;;
54599;SDS011;40500;51.084;16.958;2022-09-09T07:32:54;3.00;;;1.50;;
54599;SDS011;40500;51.084;16.958;2022-09-09T07:35:26;1.30;;;1.20;;
54599;SDS011;40500;51.084;16.958;2022-09-09T07:37:57;3.20;;;1.20;;
54599;SDS011;40500;51.084;16.958;2022-09-09T07:40:29;3.50;;;1.30;;
54599;SDS011;40500;51.084;16.958;2022-09-09T07:42:59;5.10;;;1.60;;
54599;SDS011;40500;51.084;16.958;2022-09-09T07:45:30;3.20;;;1.70;;
54599;SDS011;40500;51.084;16.958;2022-09-09T07:48:02;1.50;;;1.40;;
54599;SDS011;40500;51.084;16.958;2022-09-09T07:50:34;3.00;;;1.70;;
54599;SDS011;40500;51.084;16.958;2022-09-09T07:53:04;3.00;;;1.40;;
54599;SDS011;40500;51.084;16.958;2022-09-09T07:55:34;6.00;;;1.40;;
54599;SDS011;40500;51.084;16.958;2022-09-09T07:58:05;1.60;;;1.30;;
54599;SDS011;40500;51.084;16.958;2022-09-09T08:00:35;2.50;;;1.70;;
54599;SDS011;40500;51.084;16.958;2022-09-09T08:03:06;3.20;;;1.30;;
54599;SDS011;40500;51.084;16.958;2022-09-09T08:05:36;3.30;;;1.50;;
54599;SDS011;40500;51.084;16.958;2022-09-09T08:08:07;2.40;;;1.40;;
54599;SDS011;40500;51.084;16.958;2022-09-09T08:10:38;1.90;;;1.20;;
54599;SDS011;40500;51.084;16.958;2022-09-09T08:13:10;4.90;;;1.20;;
54599;SDS011;40500;51.084;16.958;2022-09-09T08:15:45;2.80;;;1.00;;
54599;SDS011;40500;51.084;16.958;2022-09-09T08:18:17;3.20;;;1.20;;
54599;SDS011;40500;51.084;16.958;2022-09-09T08:20:48;4.10;;;1.30;;
54599;SDS011;40500;51.084;16.958;2022-09-09T08:23:19;1.40;;;1.10;;
54599;SDS011;40500;51.084;16.958;2022-09-09T08:25:50;1.40;;;1.00;;
54599;SDS011;40500;51.084;16.958;2022-09-09T08:28:21;1.80;;;0.90;;
54599;SDS011;40500;51.084;16.958;2022-09-09T08:30:51;2.50;;;0.70;;
54599;SDS011;40500;51.084;16.958;2022-09-09T08:33:21;1.10;;;0.80;;
54599;SDS011;40500;51.084;16.958;2022-09-09T08:35:53;4.10;;;0.90;;
54599;SDS011;40500;51.084;16.958;2022-09-09T08:38:23;1.20;;;0.60;;
54599;SDS011;40500;51.084;16.958;2022-09-09T08:40:55;5.10;;;0.90;;
54599;SDS011;40500;51.084;16.958;2022-09-09T08:43:32;1.10;;;0.80;;
54599;SDS011;40500;51.084;16.958;2022-09-09T08:46:04;3.10;;;0.80;;
54599;SDS011;40500;51.084;16.958;2022-09-09T08:48:46;2.00;;;0.70;;
54599;SDS011;40500;51.084;16.958;2022-09-09T08:51:21;3.60;;;0.70;;
54599;SDS011;40500;51.084;16.958;2022-09-09T08:53:56;2.30;;;1.10;;
54599;SDS011;40500;51.084;16.958;2022-09-09T08:56:31;3.40;;;1.00;;
54599;SDS011;40500;51.084;16.958;2022-09-09T08:59:02;2.30;;;0.70;;
54599;SDS011;40500;51.084;16.958;2022-09-09T09:04:48;2.00;;;1.30;;
54599;SDS011;40500;51.084;16.958;2022-09-09T09:07:28;2.50;;;1.10;;
54599;SDS011;40500;51.084;16.958;2022-09-09T09:10:12;2.10;;;0.70;;
54599;SDS011;40500;51.084;16.958;2022-09-09T09:13:09;1.60;;;0.90;;
54599;SDS011;40500;51.084;16.958;2022-09-09T09:15:44;3.30;;;0.80;;
54599;SDS011;40500;51.084;16.958;2022-09-09T09:18:19;2.90;;;0.90;;
54599;SDS011;40500;51.084;16.958;2022-09-09T09:20:51;1.70;;;0.70;;
54599;SDS011;40500;51.084;16.958;2022-09-09T09:23:29;2.70;;;0.60;;
54599;SDS011;40500;51.084;16.958;2022-09-09T09:26:09;2.00;;;0.70;;
54599;SDS011;40500;51.084;16.958;2022-09-09T09:28:40;6.70;;;1.00;;
54599;SDS011;40500;51.084;16.958;2022-09-09T09:31:11;1.50;;;1.00;;
54599;SDS011;40500;51.084;16.958;2022-09-09T09:33:46;1.50;;;0.90;;
54599;SDS011;40500;51.084;16.958;2022-09-09T09:36:21;1.70;;;0.90;;
54599;SDS011;40500;51.084;16.958;2022-09-09T09:39:02;6.00;;;1.20;;
54599;SDS011;40500;51.084;16.958;2022-09-09T09:41:53;4.50;;;1.30;;
54599;SDS011;40500;51.084;16.958;2022-09-09T09:44:24;1.70;;;0.90;;
54599;SDS011;40500;51.084;16.958;2022-09-09T09:47:06;1.20;;;0.80;;
54599;SDS011;40500;51.084;16.958;2022-09-09T09:49:40;2.90;;;1.10;;
54599;SDS011;40500;51.084;16.958;2022-09-09T09:52:22;1.30;;;0.80;;
54599;SDS011;40500;51.084;16.958;2022-09-09T09:54:56;3.20;;;0.90;;
54599;SDS011;40500;51.084;16.958;2022-09-09T09:57:34;0.60;;;0.50;;
54599;SDS011;40500;51.084;16.958;2022-09-09T10:00:12;5.90;;;1.20;;
54599;SDS011;40500;51.084;16.958;2022-09-09T10:02:45;2.20;;;0.90;;
54599;SDS011;40500;51.084;16.958;2022-09-09T10:05:19;3.80;;;0.70;;
54599;SDS011;40500;51.084;16.958;2022-09-09T10:08:09;4.20;;;1.40;;
54599;SDS011;40500;51.084;16.958;2022-09-09T10:10:46;4.90;;;1.60;;
54599;SDS011;40500;51.084;16.958;2022-09-09T10:13:31;1.60;;;1.10;;
54599;SDS011;40500;51.084;16.958;2022-09-09T10:16:13;7.20;;;1.50;;
54599;SDS011;40500;51.084;16.958;2022-09-09T10:18:57;3.60;;;1.10;;
54599;SDS011;40500;51.084;16.958;2022-09-09T10:21:45;1.60;;;0.70;;
54599;SDS011;40500;51.084;16.958;2022-09-09T10:24:33;1.60;;;0.70;;
54599;SDS011;40500;51.084;16.958;2022-09-09T10:27:17;1.80;;;0.90;;
54599;SDS011;40500;51.084;16.958;2022-09-09T10:30:06;4.00;;;1.10;;
54599;SDS011;40500;51.084;16.958;2022-09-09T10:32:45;2.30;;;1.00;;
54599;SDS011;40500;51.084;16.958;2022-09-09T10:35:26;2.60;;;1.10;;
54599;SDS011;40500;51.084;16.958;2022-09-09T10:38:09;1.70;;;1.10;;
54599;SDS011;40500;51.084;16.958;2022-09-09T10:40:44;2.80;;;1.10;;
54599;SDS011;40500;51.084;16.958;2022-09-09T10:43:32;1.10;;;0.90;;
54599;SDS011;40500;51.084;16.958;2022-09-09T10:46:15;1.40;;;0.90;;
54599;SDS011;40500;51.084;16.958;2022-09-09T10:49:03;1.80;;;0.70;;
54599;SDS011;40500;51.084;16.958;2022-09-09T10:51:50;4.80;;;1.50;;
54599;SDS011;40500;51.084;16.958;2022-09-09T10:54:35;2.30;;;0.90;;
54599;SDS011;40500;51.084;16.958;2022-09-09T10:59:53;2.60;;;1.20;;
54599;SDS011;40500;51.084;16.958;2022-09-09T11:02:27;3.10;;;1.00;;
54599;SDS011;40500;51.084;16.958;2022-09-09T11:04:59;1.90;;;1.00;;
54599;SDS011;40500;51.084;16.958;2022-09-09T11:07:35;1.20;;;0.70;;
54599;SDS011;40500;51.084;16.958;2022-09-09T11:12:46;1.50;;;0.60;;
54599;SDS011;40500;51.084;16.958;2022-09-09T11:15:23;3.90;;;0.80;;
54599;SDS011;40500;51.084;16.958;2022-09-09T11:18:01;3.90;;;0.90;;
54599;SDS011;40500;51.084;16.958;2022-09-09T11:20:33;2.40;;;0.70;;
54599;SDS011;40500;51.084;16.958;2022-09-09T11:23:04;4.20;;;1.00;;
54599;SDS011;40500;51.084;16.958;2022-09-09T11:25:41;2.70;;;0.80;;
54599;SDS011;40500;51.084;16.958;2022-09-09T11:28:24;2.50;;;0.90;;
54599;SDS011;40500;51.084;16.958;2022-09-09T11:31:10;1.50;;;0.70;;
54599;SDS011;40500;51.084;16.958;2022-09-09T11:33:53;4.30;;;0.70;;
54599;SDS011;40500;51.084;16.958;2022-09-09T11:39:37;3.90;;;1.20;;
54599;SDS011;40500;51.084;16.958;2022-09-09T11:42:24;0.90;;;0.60;;
54599;SDS011;40500;51.084;16.958;2022-09-09T11:44:55;0.90;;;0.70;;
54599;SDS011;40500;51.084;16.958;2022-09-09T11:47:28;0.90;;;0.70;;
54599;SDS011;40500;51.084;16.958;2022-09-09T11:50:08;0.90;;;0.70;;
54599;SDS011;40500;51.084;16.958;2022-09-09T11:53:05;4.90;;;0.70;;
54599;SDS011;40500;51.084;16.958;2022-09-09T11:56:01;2.40;;;0.70;;
54599;SDS011;40500;51.084;16.958;2022-09-09T11:58:55;2.80;;;0.70;;
54599;SDS011;40500;51.084;16.958;2022-09-09T12:01:37;5.70;;;0.80;;
54599;SDS011;40500;51.084;16.958;2022-09-09T12:04:13;1.80;;;0.70;;
54599;SDS011;40500;51.084;16.958;2022-09-09T12:06:57;0.80;;;0.60;;
54599;SDS011;40500;51.084;16.958;2022-09-09T12:09:32;2.00;;;0.80;;
54599;SDS011;40500;51.084;16.958;2022-09-09T12:12:29;4.10;;;0.80;;
54599;SDS011;40500;51.084;16.958;2022-09-09T12:15:21;2.60;;;0.80;;
54599;SDS011;40500;51.084;16.958;2022-09-09T12:17:56;1.10;;;0.70;;
54599;SDS011;40500;51.084;16.958;2022-09-09T12:20:34;2.70;;;0.70;;
54599;SDS011;40500;51.084;16.958;2022-09-09T12:23:18;0.90;;;0.50;;
54599;SDS011;40500;51.084;16.958;2022-09-09T12:25:59;0.70;;;0.70;;
54599;SDS011;40500;51.084;16.958;2022-09-09T12:28:47;1.40;;;0.60;;
54599;SDS011;40500;51.084;16.958;2022-09-09T12:31:25;1.30;;;0.80;;
54599;SDS011;40500;51.084;16.958;2022-09-09T12:34:04;1.60;;;0.80;;
54599;SDS011;40500;51.084;16.958;2022-09-09T12:36:42;3.10;;;0.90;;
54599;SDS011;40500;51.084;16.958;2022-09-09T12:39:22;1.40;;;0.80;;
54599;SDS011;40500;51.084;16.958;2022-09-09T12:41:58;1.00;;;0.70;;
54599;SDS011;40500;51.084;16.958;2022-09-09T12:44:31;1.30;;;0.80;;
54599;SDS011;40500;51.084;16.958;2022-09-09T12:47:02;1.80;;;0.80;;
54599;SDS011;40500;51.084;16.958;2022-09-09T12:49:34;4.80;;;0.70;;
54599;SDS011;40500;51.084;16.958;2022-09-09T12:52:08;1.50;;;0.90;;
54599;SDS011;40500;51.084;16.958;2022-09-09T12:54:44;3.90;;;0.90;;
54599;SDS011;40500;51.084;16.958;2022-09-09T12:57:15;2.30;;;0.90;;
54599;SDS011;40500;51.084;16.958;2022-09-09T12:59:46;1.80;;;0.70;;
54599;SDS011;40500;51.084;16.958;2022-09-09T13:02:24;1.40;;;0.70;;
54599;SDS011;40500;51.084;16.958;2022-09-09T13:05:05;1.40;;;0.70;;
54599;SDS011;40500;51.084;16.958;2022-09-09T13:07:42;4.90;;;0.90;;
54599;SDS011;40500;51.084;16.958;2022-09-09T13:10:13;0.80;;;0.60;;
54599;SDS011;40500;51.084;16.958;2022-09-09T13:13:03;0.80;;;0.60;;
54599;SDS011;40500;51.084;16.958;2022-09-09T13:15:47;2.70;;;1.30;;
54599;SDS011;40500;51.084;16.958;2022-09-09T13:18:20;1.00;;;0.70;;
54599;SDS011;40500;51.084;16.958;2022-09-09T13:20:52;1.90;;;0.60;;
54599;SDS011;40500;51.084;16.958;2022-09-09T13:23:26;2.10;;;0.60;;
54599;SDS011;40500;51.084;16.958;2022-09-09T13:25:58;5.80;;;2.60;;
54599;SDS011;40500;51.084;16.958;2022-09-09T13:28:31;1.20;;;1.00;;
54599;SDS011;40500;51.084;16.958;2022-09-09T13:31:03;2.00;;;1.30;;
54599;SDS011;40500;51.084;16.958;2022-09-09T13:33:35;2.30;;;1.10;;
54599;SDS011;40500;51.084;16.958;2022-09-09T13:36:08;3.20;;;1.60;;
54599;SDS011;40500;51.084;16.958;2022-09-09T13:38:52;5.20;;;1.40;;
54599;SDS011;40500;51.084;16.958;2022-09-09T13:41:25;1.70;;;1.10;;
54599;SDS011;40500;51.084;16.958;2022-09-09T13:43:59;4.00;;;1.40;;
54599;SDS011;40500;51.084;16.958;2022-09-09T13:46:33;1.20;;;0.80;;
54599;SDS011;40500;51.084;16.958;2022-09-09T13:49:19;2.20;;;0.90;;
54599;SDS011;40500;51.084;16.958;2022-09-09T13:51:50;1.70;;;1.00;;
54599;SDS011;40500;51.084;16.958;2022-09-09T13:54:31;3.40;;;1.00;;
54599;SDS011;40500;51.084;16.958;2022-09-09T13:57:01;1.60;;;0.70;;
54599;SDS011;40500;51.084;16.958;2022-09-09T13:59:32;1.20;;;0.80;;
54599;SDS011;40500;51.084;16.958;2022-09-09T14:02:22;1.10;;;0.60;;
54599;SDS011;40500;51.084;16.958;2022-09-09T14:04:53;0.80;;;0.70;;
54599;SDS011;40500;51.084;16.958;2022-09-09T14:07:23;1.20;;;1.00;;
54599;SDS011;40500;51.084;16.958;2022-09-09T14:09:53;1.00;;;0.90;;
54599;SDS011;40500;51.084;16.958;2022-09-09T14:12:24;1.80;;;0.70;;
54599;SDS011;40500;51.084;16.958;2022-09-09T14:14:54;1.50;;;0.90;;
54599;SDS011;40500;51.084;16.958;2022-09-09T14:17:26;2.70;;;0.50;;
54599;SDS011;40500;51.084;16.958;2022-09-09T14:19:58;1.90;;;0.90;;
54599;SDS011;40500;51.084;16.958;2022-09-09T14:22:29;2.70;;;0.70;;
54599;SDS011;40500;51.084;16.958;2022-09-09T14:24:59;2.20;;;0.60;;
54599;SDS011;40500;51.084;16.958;2022-09-09T14:27:29;1.40;;;0.80;;
54599;SDS011;40500;51.084;16.958;2022-09-09T14:30:00;1.80;;;0.60;;
54599;SDS011;40500;51.084;16.958;2022-09-09T14:32:32;3.80;;;0.80;;
54599;SDS011;40500;51.084;16.958;2022-09-09T14:35:02;2.10;;;0.80;;
54599;SDS011;40500;51.084;16.958;2022-09-09T14:37:35;0.60;;;0.50;;
54599;SDS011;40500;51.084;16.958;2022-09-09T14:40:07;2.20;;;0.90;;
54599;SDS011;40500;51.084;16.958;2022-09-09T14:42:38;1.20;;;0.70;;
54599;SDS011;40500;51.084;16.958;2022-09-09T14:45:10;1.80;;;0.80;;
54599;SDS011;40500;51.084;16.958;2022-09-09T14:47:41;1.20;;;0.70;;
54599;SDS011;40500;51.084;16.958;2022-09-09T14:50:12;3.30;;;0.90;;
54599;SDS011;40500;51.084;16.958;2022-09-09T14:52:43;0.70;;;0.70;;
54599;SDS011;40500;51.084;16.958;2022-09-09T14:55:13;1.70;;;0.70;;
54599;SDS011;40500;51.084;16.958;2022-09-09T14:57:44;2.70;;;0.70;;
54599;SDS011;40500;51.084;16.958;2022-09-09T15:00:14;0.80;;;0.80;;
54599;SDS011;40500;51.084;16.958;2022-09-09T15:02:45;2.00;;;0.70;;
54599;SDS011;40500;51.084;16.958;2022-09-09T15:05:16;2.10;;;0.80;;
54599;SDS011;40500;51.084;16.958;2022-09-09T15:07:46;1.50;;;0.90;;
54599;SDS011;40500;51.084;16.958;2022-09-09T15:10:17;1.70;;;0.70;;
54599;SDS011;40500;51.084;16.958;2022-09-09T15:12:48;1.30;;;0.80;;
54599;SDS011;40500;51.084;16.958;2022-09-09T15:15:18;1.60;;;0.70;;
54599;SDS011;40500;51.084;16.958;2022-09-09T15:17:50;1.60;;;0.90;;
54599;SDS011;40500;51.084;16.958;2022-09-09T15:20:22;1.40;;;0.90;;
54599;SDS011;40500;51.084;16.958;2022-09-09T15:22:53;2.70;;;1.20;;
54599;SDS011;40500;51.084;16.958;2022-09-09T15:25:23;0.80;;;0.70;;
54599;SDS011;40500;51.084;16.958;2022-09-09T15:27:54;1.80;;;0.80;;
54599;SDS011;40500;51.084;16.958;2022-09-09T15:30:24;1.40;;;0.80;;
54599;SDS011;40500;51.084;16.958;2022-09-09T15:32:55;0.60;;;0.50;;
54599;SDS011;40500;51.084;16.958;2022-09-09T15:35:25;2.30;;;0.90;;